Time;durP1;ratioP1;P1;durP2;ratioP2;P2;SDS_P1;SDS_P2;PMS_P1;PMS_P2;Temp;Humidity;BMP_temperature;BMP_pressure;BME280_temperature;BME280_humidity;BME280_pressure;Samples;Min_cycle;Max_cycle;Signal;HPM_P1;HPM_P2
2022/07/22 02:47:24;;;;;;;11.43;7.20;;;19.20;99.90;;;;;;5356073;23;93715;-78
2022/07/22 02:49:50;;;;;;;12.70;7.43;;;19.20;99.90;;;;;;4879341;28;92962;-78
2022/07/22 02:52:16;;;;;;;13.75;7.85;;;19.10;99.90;;;;;;4881268;28;92232;-76
2022/07/22 02:54:42;;;;;;;11.35;6.97;;;19.10;99.90;;;;;;4884164;28;92008;-76
2022/07/22 02:57:07;;;;;;;9.80;6.32;;;19.20;99.90;;;;;;4884242;28;93467;-77
2022/07/22 02:59:33;;;;;;;12.13;6.40;;;19.30;99.90;;;;;;4883238;28;93188;-76
2022/07/22 03:01:59;;;;;;;12.52;6.63;;;19.30;99.90;;;;;;4884144;28;93995;-78
2022/07/22 03:04:24;;;;;;;11.65;6.97;;;19.30;99.90;;;;;;4872754;28;92491;-78
2022/07/22 03:06:50;;;;;;;10.70;6.55;;;19.30;99.90;;;;;;4865616;29;92825;-78
2022/07/22 03:09:16;;;;;;;12.90;7.10;;;19.30;99.90;;;;;;4865133;28;91917;-76
2022/07/22 03:11:42;;;;;;;11.68;6.22;;;19.20;99.90;;;;;;4865847;29;92400;-76
2022/07/22 03:14:08;;;;;;;12.13;7.07;;;19.20;99.90;;;;;;4866463;29;91269;-76
2022/07/22 03:16:33;;;;;;;11.13;6.90;;;19.20;99.90;;;;;;4864547;28;92279;-76
2022/07/22 03:18:59;;;;;;;13.18;7.35;;;19.10;99.90;;;;;;4871430;28;93293;-76
2022/07/22 03:21:25;;;;;;;14.45;7.03;;;19.20;99.90;;;;;;4883125;28;92898;-77
2022/07/22 03:23:53;;;;;;;10.35;6.82;;;19.10;99.90;;;;;;4884462;28;92389;-76
2022/07/22 03:26:20;;;;;;;11.50;6.72;;;19.00;99.90;;;;;;4878800;28;93236;-76
2022/07/22 03:28:46;;;;;;;13.27;7.20;;;19.00;99.90;;;;;;4873334;28;92303;-76
2022/07/22 03:31:12;;;;;;;11.20;7.13;;;18.90;99.90;;;;;;4869992;28;92086;-76
2022/07/22 03:33:38;;;;;;;12.70;7.32;;;19.00;99.90;;;;;;4884444;28;91936;-76
2022/07/22 03:36:05;;;;;;;10.98;6.63;;;18.90;99.90;;;;;;4883919;28;92591;-76
2022/07/22 03:38:31;;;;;;;12.57;6.65;;;18.80;99.90;;;;;;4883984;28;91983;-77
2022/07/22 03:40:57;;;;;;;10.68;6.80;;;18.80;99.90;;;;;;4869995;28;92057;-76
2022/07/22 03:43:23;;;;;;;14.27;7.47;;;18.90;99.90;;;;;;4897519;28;92160;-79
2022/07/22 03:45:48;;;;;;;11.55;7.18;;;18.90;99.90;;;;;;4902513;28;93025;-76
2022/07/22 03:48:14;;;;;;;11.68;7.00;;;19.00;99.90;;;;;;4902084;28;92866;-79
2022/07/22 03:50:40;;;;;;;12.13;7.15;;;18.90;99.90;;;;;;4873301;28;91992;-78
2022/07/22 03:53:05;;;;;;;12.98;7.75;;;19.00;99.90;;;;;;4873747;28;91964;-77
2022/07/22 03:55:31;;;;;;;13.48;7.65;;;18.90;99.90;;;;;;4869604;28;92432;-75
2022/07/22 03:57:57;;;;;;;13.50;8.23;;;18.90;99.90;;;;;;4883652;28;92375;-76
2022/07/22 04:00:22;;;;;;;14.70;7.95;;;18.90;99.90;;;;;;4882614;28;92166;-76
2022/07/22 04:02:48;;;;;;;14.30;8.52;;;18.80;99.90;;;;;;4879966;28;91440;-76
2022/07/22 04:05:14;;;;;;;14.75;8.07;;;18.70;99.90;;;;;;4893154;28;92248;-76
2022/07/22 04:07:40;;;;;;;13.65;8.07;;;18.70;99.90;;;;;;4881957;28;92274;-77
2022/07/22 04:10:06;;;;;;;12.45;8.25;;;18.80;99.90;;;;;;4882855;28;92731;-79
2022/07/22 04:12:36;;;;;;;11.80;8.13;;;18.90;99.90;;;;;;4879937;28;91929;-79
2022/07/22 04:15:06;;;;;;;11.90;6.65;;;19.00;99.90;;;;;;4871990;28;92785;-79
2022/07/22 04:17:32;;;;;;;13.77;6.32;;;19.30;99.90;;;;;;4874901;28;92038;-79
2022/07/22 04:20:00;;;;;;;12.00;7.13;;;19.60;99.90;;;;;;4871283;28;92453;-79
2022/07/22 04:22:28;;;;;;;11.02;6.40;;;19.90;99.90;;;;;;4860973;29;92531;-79
2022/07/22 04:24:55;;;;;;;12.00;7.28;;;20.10;99.90;;;;;;4860450;29;92324;-79
2022/07/22 04:27:20;;;;;;;10.80;6.85;;;20.20;99.90;;;;;;4875920;28;91452;-79
2022/07/22 04:29:46;;;;;;;11.95;7.07;;;20.40;99.90;;;;;;4879134;28;92040;-79
2022/07/22 04:32:12;;;;;;;14.07;7.07;;;20.70;99.90;;;;;;4879764;28;92398;-79
2022/07/22 04:34:37;;;;;;;11.13;6.95;;;21.10;99.90;;;;;;4879373;28;93538;-79
2022/07/22 04:37:03;;;;;;;10.57;6.95;;;21.50;99.90;;;;;;4878141;28;94038;-79
2022/07/22 04:39:29;;;;;;;10.80;6.72;;;21.60;99.90;;;;;;4880504;28;92100;-80
2022/07/22 04:41:55;;;;;;;11.57;7.00;;;22.00;99.90;;;;;;4879721;28;92059;-77
2022/07/22 04:44:21;;;;;;;11.48;7.43;;;22.30;99.90;;;;;;4875284;28;92253;-77
2022/07/22 04:46:47;;;;;;;11.43;7.20;;;22.40;97.70;;;;;;4876420;28;92216;-78
2022/07/22 04:49:13;;;;;;;11.13;6.78;;;22.50;97.60;;;;;;4879383;28;91855;-78
2022/07/22 04:51:38;;;;;;;8.52;5.45;;;22.90;96.50;;;;;;4878525;28;91506;-77
2022/07/22 04:54:04;;;;;;;9.63;5.95;;;23.30;95.60;;;;;;4877187;28;94005;-77
2022/07/22 04:56:30;;;;;;;9.35;5.55;;;23.40;90.30;;;;;;4872434;28;92114;-78
2022/07/22 04:58:55;;;;;;;6.53;4.30;;;23.20;88.00;;;;;;4866280;28;93438;-76
2022/07/22 05:01:21;;;;;;;7.00;4.20;;;23.30;84.70;;;;;;4859738;28;92308;-77
2022/07/22 05:03:47;;;;;;;7.13;4.28;;;23.60;86.90;;;;;;4861598;28;92373;-78
2022/07/22 05:06:13;;;;;;;8.05;3.97;;;23.70;79.60;;;;;;4877680;28;92247;-77
2022/07/22 05:08:38;;;;;;;8.68;4.55;;;23.60;83.10;;;;;;4872636;28;92454;-77
2022/07/22 05:11:04;;;;;;;11.65;3.83;;;23.40;80.20;;;;;;4884947;28;92581;-77
2022/07/22 05:13:30;;;;;;;5.93;4.47;;;23.50;78.00;;;;;;4897239;28;92390;-76
2022/07/22 05:15:55;;;;;;;5.93;3.53;;;23.90;79.00;;;;;;4884270;28;91759;-77
2022/07/22 05:18:21;;;;;;;6.13;4.00;;;24.10;76.30;;;;;;4892064;28;92066;-76
2022/07/22 05:20:47;;;;;;;6.38;3.97;;;24.00;76.90;;;;;;4875260;28;92749;-77
2022/07/22 05:23:13;;;;;;;8.93;4.20;;;24.20;74.90;;;;;;4878062;28;94172;-77
2022/07/22 05:25:38;;;;;;;7.03;4.07;;;24.10;73.80;;;;;;4877578;28;94445;-76
2022/07/22 05:28:04;;;;;;;6.22;4.00;;;23.90;76.70;;;;;;4878301;28;91997;-77
2022/07/22 05:30:30;;;;;;;9.77;4.03;;;24.50;74.60;;;;;;4877254;28;92362;-78
2022/07/22 05:32:55;;;;;;;8.65;4.80;;;25.70;73.60;;;;;;4877190;28;93314;-77
2022/07/22 05:35:21;;;;;;;8.25;4.32;;;26.60;67.40;;;;;;4878769;28;91827;-77
2022/07/22 05:37:47;;;;;;;8.70;5.18;;;26.40;66.10;;;;;;4874022;28;92623;-79
2022/07/22 05:40:13;;;;;;;5.38;4.03;;;25.80;69.00;;;;;;4859792;29;91868;-77
2022/07/22 05:42:39;;;;;;;6.07;3.90;;;26.40;67.00;;;;;;4861306;28;95164;-78
2022/07/22 05:45:05;;;;;;;8.05;4.60;;;27.30;66.40;;;;;;4874998;28;91966;-78
2022/07/22 05:47:31;;;;;;;7.72;4.25;;;28.30;61.80;;;;;;4877185;28;93004;-77
2022/07/22 05:49:56;;;;;;;5.75;3.90;;;29.10;60.70;;;;;;4878244;28;92436;-77
2022/07/22 05:52:22;;;;;;;6.35;4.28;;;30.00;59.30;;;;;;4876777;28;92362;-77
2022/07/22 05:54:48;;;;;;;6.75;4.22;;;30.40;56.40;;;;;;4872991;28;92166;-78
2022/07/22 05:57:14;;;;;;;10.00;4.65;;;29.60;57.60;;;;;;4876451;28;92048;-77
2022/07/22 05:59:41;;;;;;;9.88;5.05;;;29.20;58.50;;;;;;4868183;28;92176;-77
2022/07/22 06:02:07;;;;;;;9.32;5.45;;;29.70;57.70;;;;;;4876906;28;92798;-77
2022/07/22 06:04:33;;;;;;;9.40;4.90;;;29.60;57.80;;;;;;4872175;28;92857;-77
2022/07/22 06:06:59;;;;;;;7.93;4.85;;;29.50;59.90;;;;;;4876495;28;92450;-77
2022/07/22 06:09:24;;;;;;;9.77;4.90;;;29.80;58.30;;;;;;4877510;28;92357;-77
2022/07/22 06:11:50;;;;;;;9.18;5.53;;;30.20;57.90;;;;;;4894276;28;93148;-77
2022/07/22 06:14:16;;;;;;;8.00;5.35;;;31.20;55.30;;;;;;4887757;28;92440;-77
2022/07/22 06:16:41;;;;;;;8.05;5.97;;;31.10;56.10;;;;;;4890140;28;91732;-76
2022/07/22 06:19:07;;;;;;;10.27;6.07;;;30.80;56.80;;;;;;4880231;28;92005;-77
2022/07/22 06:21:33;;;;;;;9.43;5.35;;;30.90;56.30;;;;;;4880303;28;93228;-77
2022/07/22 06:23:59;;;;;;;8.68;5.43;;;31.00;56.90;;;;;;4879364;28;93541;-77
2022/07/22 06:26:24;;;;;;;7.78;6.38;;;32.00;55.60;;;;;;4880924;28;92075;-77
2022/07/22 06:28:50;;;;;;;11.90;6.40;;;31.60;55.20;;;;;;4879620;28;91568;-77
2022/07/22 06:31:16;;;;;;;11.63;6.28;;;31.90;55.00;;;;;;4872882;28;92329;-78
2022/07/22 06:33:42;;;;;;;8.70;6.30;;;32.10;55.50;;;;;;4874771;28;92351;-77
2022/07/22 06:36:08;;;;;;;10.23;7.22;;;32.00;54.10;;;;;;4880080;28;92849;-77
2022/07/22 06:38:34;;;;;;;8.60;6.00;;;31.70;54.80;;;;;;4881277;28;92050;-77
2022/07/22 06:41:00;;;;;;;7.05;5.82;;;30.70;56.30;;;;;;4877152;28;94278;-77
2022/07/22 06:43:27;;;;;;;8.98;5.90;;;31.30;55.30;;;;;;4879634;28;92178;-76
2022/07/22 06:45:53;;;;;;;11.48;6.65;;;32.10;54.20;;;;;;4880563;28;91945;-77
2022/07/22 06:48:19;;;;;;;10.82;7.10;;;32.10;53.60;;;;;;4880764;28;92144;-78
2022/07/22 06:50:44;;;;;;;13.43;6.38;;;31.30;55.40;;;;;;4879538;28;92539;-78
2022/07/22 06:53:10;;;;;;;10.82;6.45;;;32.30;54.40;;;;;;4880140;28;93193;-77
2022/07/22 06:55:36;;;;;;;8.98;6.35;;;33.80;52.20;;;;;;4880338;28;91983;-77
2022/07/22 06:58:01;;;;;;;11.85;7.28;;;34.70;49.80;;;;;;4880698;28;92354;-77
2022/07/22 07:00:27;;;;;;;10.48;6.82;;;33.10;52.30;;;;;;4879788;28;93747;-77
2022/07/22 07:02:53;;;;;;;10.00;6.20;;;33.20;52.40;;;;;;4878033;28;92986;-77
2022/07/22 07:05:18;;;;;;;12.90;6.95;;;34.20;50.40;;;;;;4880582;28;92417;-78
2022/07/22 07:07:44;;;;;;;10.23;6.88;;;35.00;49.30;;;;;;4879761;28;92498;-77
2022/07/22 07:10:12;;;;;;;9.40;6.68;;;34.80;49.70;;;;;;4885214;28;93443;-77
2022/07/22 07:12:38;;;;;;;10.35;7.22;;;34.90;49.80;;;;;;4879320;28;92333;-77
2022/07/22 07:15:05;;;;;;;12.25;7.60;;;36.40;47.00;;;;;;4880228;28;92036;-77
2022/07/22 07:17:31;;;;;;;8.77;6.63;;;35.60;48.70;;;;;;4881198;28;91250;-77
2022/07/22 07:19:56;;;;;;;10.70;7.82;;;35.40;50.00;;;;;;4878213;28;92289;-78
2022/07/22 07:22:22;;;;;;;12.15;7.20;;;35.10;48.80;;;;;;4879869;28;92227;-77
2022/07/22 07:24:48;;;;;;;9.38;7.05;;;34.40;50.00;;;;;;4879613;28;93038;-78
2022/07/22 07:27:14;;;;;;;8.60;7.10;;;35.60;47.90;;;;;;4879326;28;92051;-78
2022/07/22 07:29:39;;;;;;;7.55;6.05;;;36.10;47.00;;;;;;4879461;28;93941;-77
2022/07/22 07:32:05;;;;;;;9.75;7.05;;;37.60;45.80;;;;;;4879740;28;92255;-77
2022/07/22 07:34:31;;;;;;;8.63;6.88;;;37.60;45.00;;;;;;4879945;28;92021;-78
2022/07/22 07:36:57;;;;;;;7.78;6.65;;;36.70;46.30;;;;;;4880455;28;92424;-77
2022/07/22 07:39:23;;;;;;;9.70;6.75;;;37.50;45.10;;;;;;4879691;28;92299;-77
2022/07/22 07:41:50;;;;;;;9.68;6.97;;;37.50;45.40;;;;;;4878240;28;92288;-78
2022/07/22 07:44:16;;;;;;;11.50;8.27;;;36.70;45.40;;;;;;4880323;28;91985;-77
2022/07/22 07:46:42;;;;;;;10.38;6.82;;;35.90;46.80;;;;;;4879197;28;92145;-77
2022/07/22 07:49:07;;;;;;;9.07;6.97;;;36.00;47.40;;;;;;4879437;28;93443;-79
2022/07/22 07:51:33;;;;;;;9.85;7.60;;;36.60;46.50;;;;;;4879244;28;92870;-77
2022/07/22 07:53:59;;;;;;;11.40;8.10;;;38.10;44.60;;;;;;4878810;28;91909;-77
2022/07/22 07:56:24;;;;;;;8.70;7.47;;;39.40;42.60;;;;;;4878502;28;92348;-78
2022/07/22 07:58:50;;;;;;;10.02;6.97;;;40.30;42.00;;;;;;4879343;28;92298;-78
2022/07/22 08:01:16;;;;;;;10.60;7.15;;;41.20;40.20;;;;;;4879237;28;92861;-79
2022/07/22 08:03:41;;;;;;;9.25;6.63;;;41.50;38.90;;;;;;4879566;28;92439;-77
2022/07/22 08:06:07;;;;;;;10.25;6.43;;;42.60;38.10;;;;;;4878638;28;91666;-77
2022/07/22 08:08:33;;;;;;;7.88;5.65;;;42.20;37.80;;;;;;4879031;28;92273;-78
2022/07/22 08:10:58;;;;;;;7.97;6.47;;;42.50;37.30;;;;;;4890301;28;92362;-78
2022/07/22 08:13:24;;;;;;;7.70;5.72;;;42.10;38.00;;;;;;4898777;28;93263;-77
2022/07/22 08:15:51;;;;;;;10.00;6.68;;;43.20;37.80;;;;;;4884451;28;92324;-77
2022/07/22 08:18:16;;;;;;;7.47;6.28;;;42.70;36.80;;;;;;4879141;28;92077;-77
2022/07/22 08:20:42;;;;;;;8.27;5.95;;;42.20;39.00;;;;;;4878707;28;93474;-78
2022/07/22 08:23:08;;;;;;;8.77;7.20;;;43.50;36.90;;;;;;4879602;28;92030;-78
2022/07/22 08:25:34;;;;;;;8.70;5.97;;;43.40;36.80;;;;;;4877768;28;92460;-78
2022/07/22 08:28:00;;;;;;;8.20;6.70;;;44.00;37.70;;;;;;4879115;28;93439;-78
2022/07/22 08:30:29;;;;;;;10.10;7.63;;;44.90;35.20;;;;;;4879661;28;92421;-78
2022/07/22 08:32:55;;;;;;;10.98;6.75;;;45.20;34.60;;;;;;4879034;28;92097;-78
2022/07/22 08:35:21;;;;;;;6.95;6.15;;;43.20;37.10;;;;;;4877887;28;92145;-78
2022/07/22 08:37:47;;;;;;;7.30;6.60;;;43.90;36.40;;;;;;4878087;28;94123;-78
2022/07/22 08:40:14;;;;;;;7.05;6.28;;;44.70;35.30;;;;;;4877641;28;92499;-79
2022/07/22 08:42:42;;;;;;;8.75;7.85;;;44.40;36.20;;;;;;4878925;28;92086;-78
2022/07/22 08:45:09;;;;;;;8.05;7.25;;;44.40;35.50;;;;;;4878850;28;92389;-78
2022/07/22 08:47:35;;;;;;;8.43;7.63;;;45.20;35.00;;;;;;4877803;28;92677;-78
2022/07/22 08:50:01;;;;;;;10.10;7.20;;;45.30;34.30;;;;;;4877727;28;92617;-78
2022/07/22 08:52:27;;;;;;;9.95;7.57;;;46.30;33.80;;;;;;4878980;28;91997;-79
2022/07/22 08:54:52;;;;;;;12.02;7.10;;;46.80;33.00;;;;;;4878896;28;91594;-78
2022/07/22 08:57:18;;;;;;;8.95;8.02;;;43.50;37.30;;;;;;4878360;28;92057;-78
2022/07/22 08:59:53;;;;;;;10.02;7.60;;;45.20;35.20;;;;;;4877302;28;91966;-78
2022/07/22 09:02:19;;;;;;;;;;;46.10;34.40;;;;;;4879004;28;93025;-78
2022/07/22 09:04:53;;;;;;;9.40;7.50;;;46.00;35.30;;;;;;4880628;28;92257;-79
2022/07/22 09:07:25;;;;;;;;;;;46.50;34.10;;;;;;4878230;28;93587;-79
2022/07/22 09:09:51;;;;;;;8.95;8.00;;;46.80;34.40;;;;;;4881584;28;92016;-78
2022/07/22 09:12:17;;;;;;;9.25;7.15;;;47.20;34.20;;;;;;4895903;28;91977;-79
2022/07/22 09:14:46;;;;;;;9.07;7.70;;;46.20;34.80;;;;;;4859676;29;92328;-79
2022/07/22 09:17:29;;;;;;;9.48;7.65;;;47.70;33.30;;;;;;4859037;29;92467;-78
2022/07/22 09:20:00;;;;;;;9.95;8.07;;;46.80;33.70;;;;;;4870764;28;93207;-81
2022/07/22 09:22:38;;;;;;;8.20;7.40;;;47.30;32.60;;;;;;4878861;28;92361;-79
2022/07/22 09:25:30;;;;;;;10.05;7.95;;;47.50;32.90;;;;;;4878333;28;91960;-81
2022/07/22 09:28:17;;;;;;;9.25;8.18;;;48.80;32.70;;;;;;4878077;28;93434;-79
2022/07/22 09:30:46;;;;;;;11.32;9.20;;;49.60;31.40;;;;;;4875586;28;95993;-82
2022/07/22 09:33:12;;;;;;;9.23;8.35;;;50.20;32.30;;;;;;4878062;28;92351;-80
2022/07/22 09:35:39;;;;;;;9.65;8.75;;;50.60;30.90;;;;;;4877952;28;92068;-80
2022/07/22 09:38:08;;;;;;;10.48;9.48;;;51.60;29.50;;;;;;4875767;28;94543;-80
2022/07/22 09:40:40;;;;;;;12.32;9.88;;;52.40;30.20;;;;;;4876492;28;92382;-80
2022/07/22 09:43:14;;;;;;;10.32;9.27;;;52.60;29.00;;;;;;4879003;28;92035;-80
2022/07/22 09:45:56;;;;;;;10.27;9.27;;;52.30;29.20;;;;;;4878490;28;91508;-79
2022/07/22 09:48:23;;;;;;;9.52;8.65;;;52.10;30.70;;;;;;4877566;28;92685;-80
2022/07/22 09:50:51;;;;;;;10.55;9.55;;;52.10;30.40;;;;;;4879128;28;91797;-78
2022/07/22 09:53:19;;;;;;;10.52;9.52;;;53.20;29.60;;;;;;4879830;28;93241;-79
2022/07/22 09:55:45;;;;;;;12.30;10.35;;;52.60;29.00;;;;;;4878356;28;92342;-78
2022/07/22 09:58:11;;;;;;;10.38;9.48;;;52.90;28.90;;;;;;4869413;28;92849;-78
2022/07/22 10:00:39;;;;;;;11.18;9.77;;;52.70;29.40;;;;;;4883686;28;92408;-79
2022/07/22 10:03:07;;;;;;;14.38;13.18;;;52.20;29.70;;;;;;4874794;28;91857;-78
2022/07/22 10:05:37;;;;;;;12.70;11.50;;;51.90;30.00;;;;;;4864823;29;92068;-79
2022/07/22 10:08:04;;;;;;;9.65;8.85;;;50.30;29.70;;;;;;4876796;28;92196;-81
2022/07/22 10:10:31;;;;;;;11.23;10.23;;;50.20;29.60;;;;;;4880941;28;92314;-80
2022/07/22 10:12:59;;;;;;;11.15;10.13;;;48.90;30.40;;;;;;4880278;28;92107;-79
2022/07/22 10:15:27;;;;;;;12.73;8.80;;;47.40;30.80;;;;;;4866806;28;92031;-79
2022/07/22 10:17:54;;;;;;;;;;;46.30;31.60;;;;;;4864176;28;93609;-80
2022/07/22 10:20:21;;;;;;;;;;;43.10;34.40;;;;;;4876408;28;96613;-80
2022/07/22 10:22:54;;;;;;;10.15;8.73;;;40.60;37.20;;;;;;4875312;28;92406;-79
2022/07/22 10:25:22;;;;;;;7.93;7.13;;;39.00;39.40;;;;;;4863625;28;92114;-81
2022/07/22 10:27:52;;;;;;;7.35;6.65;;;38.90;40.80;;;;;;4872587;28;92754;-78
2022/07/22 10:30:30;;;;;;;7.72;6.18;;;38.10;42.30;;;;;;4858561;28;92942;-80
2022/07/22 10:33:17;;;;;;;9.00;7.07;;;37.20;43.20;;;;;;4859092;29;91985;-79
2022/07/22 10:35:43;;;;;;;6.57;5.93;;;36.50;44.70;;;;;;4865908;28;93012;-80
2022/07/22 10:38:10;;;;;;;7.47;6.22;;;35.30;48.20;;;;;;4876344;28;92490;-79
2022/07/22 10:41:07;;;;;;;7.63;5.85;;;34.80;46.90;;;;;;4866814;28;93188;-78
2022/07/22 10:43:42;;;;;;;6.93;5.72;;;34.60;48.40;;;;;;4856894;28;93496;-79
2022/07/22 10:46:08;;;;;;;;;;;34.10;48.80;;;;;;4877595;28;92364;-79
2022/07/22 10:48:36;;;;;;;8.15;6.05;;;33.70;48.60;;;;;;4875544;28;92403;-78
2022/07/22 10:51:05;;;;;;;6.72;5.90;;;33.20;53.80;;;;;;4877379;28;92077;-78
2022/07/22 10:53:57;;;;;;;6.82;5.93;;;33.10;52.80;;;;;;4876784;28;92017;-78
2022/07/22 10:56:26;;;;;;;9.60;6.00;;;33.00;52.30;;;;;;4871508;28;92396;-77
2022/07/22 10:59:12;;;;;;;8.43;5.70;;;32.90;51.60;;;;;;4875095;28;92461;-80
2022/07/22 11:01:46;;;;;;;8.38;5.55;;;32.60;50.20;;;;;;4876520;28;92037;-78
2022/07/22 11:04:13;;;;;;;10.65;5.53;;;33.00;51.70;;;;;;4880875;28;91956;-79
2022/07/22 11:06:39;;;;;;;7.13;5.45;;;33.00;51.70;;;;;;4879398;28;92209;-78
2022/07/22 11:09:11;;;;;;;9.23;6.07;;;33.10;52.90;;;;;;4877943;28;93257;-77
2022/07/22 11:11:43;;;;;;;9.27;5.75;;;33.10;53.30;;;;;;4894135;28;93104;-78
2022/07/22 11:14:17;;;;;;;8.27;5.70;;;32.90;53.70;;;;;;4879345;28;92011;-79
2022/07/22 11:16:44;;;;;;;7.75;6.18;;;32.80;52.60;;;;;;4880384;28;92689;-78
2022/07/22 11:19:10;;;;;;;9.27;5.85;;;32.60;53.60;;;;;;4881444;28;92063;-78
2022/07/22 11:21:37;;;;;;;8.07;5.60;;;32.30;54.50;;;;;;4879182;28;92467;-78
2022/07/22 11:24:05;;;;;;;7.60;5.45;;;32.30;55.00;;;;;;4876791;28;92361;-77
2022/07/22 11:26:41;;;;;;;8.07;5.05;;;32.60;55.30;;;;;;4870064;28;93106;-79
2022/07/22 11:29:08;;;;;;;7.75;5.93;;;32.60;54.50;;;;;;4869499;28;92109;-78
2022/07/22 11:31:35;;;;;;;8.65;5.05;;;32.10;54.70;;;;;;4878969;28;92431;-77
2022/07/22 11:34:06;;;;;;;9.52;5.70;;;32.40;56.20;;;;;;4879289;28;93405;-79
2022/07/22 11:36:34;;;;;;;10.25;5.43;;;32.20;54.40;;;;;;4879766;28;91979;-77
2022/07/22 11:39:00;;;;;;;8.73;5.07;;;32.10;55.90;;;;;;4872018;28;93168;-77
2022/07/22 11:41:30;;;;;;;8.35;5.57;;;32.20;54.70;;;;;;4873691;28;92327;-78
2022/07/22 11:43:56;;;;;;;6.97;5.35;;;32.10;57.30;;;;;;4872751;28;92359;-80
2022/07/22 11:46:23;;;;;;;9.68;5.00;;;31.90;55.50;;;;;;4880154;28;91960;-78
2022/07/22 11:48:48;;;;;;;8.15;5.68;;;32.00;55.70;;;;;;4877540;28;92461;-78
2022/07/22 11:51:15;;;;;;;9.60;5.75;;;32.00;56.10;;;;;;4878821;28;91942;-79
2022/07/22 11:53:42;;;;;;;7.30;4.85;;;31.70;57.00;;;;;;4877862;28;92170;-80
2022/07/22 11:56:09;;;;;;;8.57;5.32;;;31.90;55.70;;;;;;4874812;28;92228;-78
2022/07/22 11:58:44;;;;;;;10.15;5.50;;;32.20;54.90;;;;;;4860238;29;93694;-78
2022/07/22 12:01:12;;;;;;;8.43;5.28;;;32.30;53.10;;;;;;4860662;29;92893;-78
2022/07/22 12:03:39;;;;;;;7.93;5.32;;;32.20;56.70;;;;;;4872457;28;92017;-78
2022/07/22 12:06:09;;;;;;;8.18;5.57;;;31.90;56.50;;;;;;4879844;28;92083;-78
2022/07/22 12:08:40;;;;;;;7.78;4.72;;;32.00;54.00;;;;;;4878984;28;92412;-78
2022/07/22 12:11:06;;;;;;;8.85;5.35;;;32.00;55.40;;;;;;4892496;28;91948;-77
2022/07/22 12:13:32;;;;;;;11.18;5.07;;;32.10;52.70;;;;;;4898409;28;91949;-78
2022/07/22 12:15:58;;;;;;;9.40;5.95;;;31.90;55.50;;;;;;4883831;28;92347;-80
2022/07/22 12:18:26;;;;;;;11.38;5.60;;;32.10;54.30;;;;;;4879447;28;92059;-78
2022/07/22 12:20:54;;;;;;;8.20;4.82;;;32.20;54.70;;;;;;4862907;28;92218;-78
2022/07/22 12:23:21;;;;;;;6.43;4.55;;;31.90;53.80;;;;;;4878946;28;93346;-78
2022/07/22 12:25:58;;;;;;;12.75;5.43;;;32.10;53.80;;;;;;4870755;28;92143;-79
2022/07/22 12:28:25;;;;;;;6.97;4.93;;;32.20;54.10;;;;;;4860675;29;92757;-78
2022/07/22 12:30:55;;;;;;;6.13;4.97;;;32.00;55.00;;;;;;4875793;28;92404;-77
2022/07/22 12:33:22;;;;;;;7.35;5.38;;;31.60;55.60;;;;;;4880015;28;92076;-79
2022/07/22 12:36:08;;;;;;;8.02;4.75;;;31.70;55.90;;;;;;4868567;28;92391;-78
2022/07/22 12:38:33;;;;;;;7.88;5.15;;;31.70;55.90;;;;;;4879020;28;93052;-77
2022/07/22 12:41:21;;;;;;;8.90;5.78;;;31.80;55.10;;;;;;4879211;28;91362;-78
2022/07/22 12:43:48;;;;;;;;;;;31.70;54.50;;;;;;4878416;28;92027;-78
2022/07/22 12:46:13;;;;;;;8.05;4.75;;;31.90;54.70;;;;;;4880066;28;92485;-78
2022/07/22 12:48:52;;;;;;;7.50;5.13;;;31.90;53.80;;;;;;4876458;28;94289;-80
2022/07/22 12:51:18;;;;;;;8.00;5.32;;;31.90;53.50;;;;;;4878805;28;92948;-79
2022/07/22 12:53:44;;;;;;;9.45;5.47;;;31.90;54.50;;;;;;4879320;28;93126;-79
2022/07/22 12:56:10;;;;;;;7.32;4.82;;;32.10;55.80;;;;;;4868983;28;92528;-78
2022/07/22 12:58:40;;;;;;;6.97;4.63;;;32.20;54.00;;;;;;4874990;28;92330;-79
2022/07/22 13:01:06;;;;;;;8.00;4.93;;;32.20;54.10;;;;;;4875144;28;92368;-78
2022/07/22 13:03:32;;;;;;;6.70;4.75;;;32.20;54.50;;;;;;4879612;28;92405;-78
2022/07/22 13:06:00;;;;;;;7.97;5.10;;;32.00;52.60;;;;;;4879517;28;91220;-79
2022/07/22 13:08:27;;;;;;;6.07;4.53;;;31.90;52.10;;;;;;4879005;28;92836;-78
2022/07/22 13:10:55;;;;;;;7.40;4.45;;;31.80;53.00;;;;;;4875053;28;93224;-77
2022/07/22 13:13:22;;;;;;;7.60;4.82;;;32.00;52.50;;;;;;4878520;28;93021;-78
2022/07/22 13:15:49;;;;;;;8.75;4.20;;;32.10;51.70;;;;;;4879000;28;91932;-77
2022/07/22 13:18:15;;;;;;;9.00;4.60;;;32.00;53.10;;;;;;4878292;28;91973;-78
2022/07/22 13:20:41;;;;;;;6.22;4.63;;;31.90;51.90;;;;;;4863990;28;92097;-78
2022/07/22 13:23:07;;;;;;;6.72;5.10;;;31.90;52.10;;;;;;4875441;28;91986;-77
2022/07/22 13:25:34;;;;;;;7.15;4.68;;;32.00;50.60;;;;;;4873934;28;92372;-78
2022/07/22 13:28:00;;;;;;;8.13;4.72;;;32.00;51.60;;;;;;4878085;28;92077;-78
2022/07/22 13:30:26;;;;;;;7.63;5.22;;;32.00;52.20;;;;;;4878459;28;92376;-78
2022/07/22 13:32:52;;;;;;;8.25;5.15;;;32.00;52.20;;;;;;4878169;28;92051;-79
2022/07/22 13:35:18;;;;;;;7.40;4.55;;;32.10;51.50;;;;;;4872562;28;92430;-79
2022/07/22 13:37:44;;;;;;;7.80;5.32;;;32.10;51.90;;;;;;4877017;28;93186;-78
2022/07/22 13:40:10;;;;;;;7.13;4.50;;;31.90;52.40;;;;;;4876848;28;92811;-79
2022/07/22 13:42:36;;;;;;;6.05;4.55;;;31.90;51.70;;;;;;4864547;28;92343;-78
2022/07/22 13:45:03;;;;;;;6.55;4.47;;;32.10;51.70;;;;;;4866145;28;92130;-78
2022/07/22 13:47:28;;;;;;;6.18;4.55;;;32.10;51.00;;;;;;4858142;29;92306;-78
2022/07/22 13:49:54;;;;;;;5.88;4.10;;;32.10;50.50;;;;;;4870403;28;92239;-78
2022/07/22 13:52:20;;;;;;;9.68;4.35;;;32.10;48.00;;;;;;4876868;28;92068;-79
2022/07/22 13:54:45;;;;;;;6.45;4.25;;;31.80;49.90;;;;;;4878938;28;91273;-78
2022/07/22 13:57:12;;;;;;;5.95;4.47;;;31.80;51.00;;;;;;4876234;28;93863;-78
2022/07/22 13:59:38;;;;;;;6.30;4.03;;;31.80;46.50;;;;;;4878101;28;92164;-80
2022/07/22 14:02:04;;;;;;;6.20;4.53;;;31.70;48.70;;;;;;4877185;28;93461;-81
2022/07/22 14:04:30;;;;;;;6.53;3.88;;;31.80;49.80;;;;;;4877168;28;92226;-78
2022/07/22 14:06:56;;;;;;;8.93;3.90;;;31.80;47.80;;;;;;4876609;28;92323;-78
2022/07/22 14:09:22;;;;;;;9.88;4.30;;;31.70;48.00;;;;;;4876038;28;91831;-78
2022/07/22 14:11:48;;;;;;;6.05;4.15;;;31.80;49.30;;;;;;4895780;28;92140;-81
2022/07/22 14:14:13;;;;;;;6.35;3.95;;;31.90;49.50;;;;;;4882742;28;92149;-80
2022/07/22 14:16:39;;;;;;;5.75;3.88;;;32.00;46.00;;;;;;4875899;28;92401;-81
2022/07/22 14:19:13;;;;;;;6.60;3.83;;;32.00;46.30;;;;;;4877510;28;92050;-79
2022/07/22 14:21:42;;;;;;;5.72;3.75;;;32.10;45.10;;;;;;4878028;28;92164;-79
2022/07/22 14:24:09;;;;;;;6.18;3.83;;;32.10;44.20;;;;;;4877146;28;92423;-78
2022/07/22 14:26:35;;;;;;;5.45;3.45;;;32.00;44.00;;;;;;4874807;28;93451;-80
2022/07/22 14:29:02;;;;;;;4.82;3.53;;;32.10;44.60;;;;;;4864124;28;93019;-77
2022/07/22 14:31:27;;;;;;;5.82;3.65;;;32.00;44.60;;;;;;4858028;29;92065;-78
2022/07/22 14:33:55;;;;;;;4.47;3.40;;;31.90;41.50;;;;;;4864842;28;92104;-78
2022/07/22 14:36:20;;;;;;;5.63;3.47;;;31.90;40.80;;;;;;4875991;28;93449;-79
2022/07/22 14:38:46;;;;;;;5.07;2.83;;;31.80;43.20;;;;;;4880362;28;92289;-78
2022/07/22 14:41:12;;;;;;;6.88;3.30;;;31.90;40.80;;;;;;4880011;28;92116;-77
2022/07/22 14:43:38;;;;;;;4.97;2.70;;;32.00;42.80;;;;;;4868748;28;91426;-78
2022/07/22 14:46:06;;;;;;;4.22;2.88;;;32.10;37.80;;;;;;4872635;28;92601;-79
2022/07/22 14:48:33;;;;;;;3.70;2.83;;;32.10;37.60;;;;;;4865327;28;92461;-78
2022/07/22 14:51:00;;;;;;;4.50;2.53;;;32.00;40.80;;;;;;4875638;28;93479;-78
2022/07/22 14:53:25;;;;;;;5.60;2.65;;;32.20;40.80;;;;;;4865366;28;92523;-77
2022/07/22 14:55:51;;;;;;;4.85;3.10;;;32.20;38.80;;;;;;4880721;28;92786;-79
2022/07/22 14:58:18;;;;;;;4.65;2.88;;;32.10;38.80;;;;;;4879477;28;92813;-79
2022/07/22 15:00:43;;;;;;;6.60;3.13;;;32.10;39.40;;;;;;4880868;28;92011;-77
2022/07/22 15:03:09;;;;;;;4.85;3.60;;;32.20;39.70;;;;;;4880246;28;92461;-78
2022/07/22 15:05:35;;;;;;;4.60;3.03;;;32.20;37.40;;;;;;4879206;28;92672;-81
2022/07/22 15:08:00;;;;;;;4.50;3.28;;;32.20;38.40;;;;;;4880883;28;91701;-79
2022/07/22 15:10:26;;;;;;;5.45;3.30;;;32.20;39.30;;;;;;4874262;28;92980;-78
2022/07/22 15:12:52;;;;;;;5.85;3.67;;;32.30;41.90;;;;;;4874423;28;92164;-80
2022/07/22 15:15:17;;;;;;;5.68;3.15;;;32.10;43.40;;;;;;4871542;28;94173;-78
2022/07/22 15:17:46;;;;;;;4.68;3.63;;;32.00;41.90;;;;;;4879802;28;92815;-77
2022/07/22 15:20:11;;;;;;;6.07;4.20;;;32.00;42.90;;;;;;4880979;28;91951;-79
2022/07/22 15:22:37;;;;;;;6.47;3.88;;;32.20;43.70;;;;;;4879940;28;92169;-77
2022/07/22 15:25:03;;;;;;;7.38;4.03;;;32.20;43.60;;;;;;4879358;28;92262;-79
2022/07/22 15:27:29;;;;;;;6.72;4.30;;;32.20;42.90;;;;;;4880173;28;92017;-79
2022/07/22 15:29:54;;;;;;;4.90;3.78;;;32.10;44.80;;;;;;4880636;28;92549;-80
2022/07/22 15:32:20;;;;;;;6.25;4.07;;;32.20;45.00;;;;;;4880675;28;91399;-81